sensor_id;sensor_type;location;lat;lon;timestamp;P1;durP1;ratioP1;P2;durP2;ratioP2
58874;SDS011;44652;49.040;12.126;2023-01-19T19:06:25;10.95;;;6.93;;
58874;SDS011;44652;49.040;12.126;2023-01-19T19:08:53;13.27;;;7.75;;
58874;SDS011;44652;49.040;12.126;2023-01-19T19:11:20;13.43;;;7.88;;
58874;SDS011;44652;49.040;12.126;2023-01-19T19:13:50;13.77;;;8.20;;
58874;SDS011;44652;49.040;12.126;2023-01-19T19:16:17;11.50;;;7.75;;
58874;SDS011;44652;49.040;12.126;2023-01-19T19:18:43;13.52;;;7.75;;
58874;SDS011;44652;49.040;12.126;2023-01-19T19:21:10;14.27;;;7.55;;
58874;SDS011;44652;49.040;12.126;2023-01-19T19:23:37;17.75;;;8.10;;
58874;SDS011;44652;49.040;12.126;2023-01-19T19:26:07;16.20;;;8.27;;
58874;SDS011;44652;49.040;12.126;2023-01-19T19:28:35;19.90;;;10.63;;
58874;SDS011;44652;49.040;12.126;2023-01-19T19:31:08;19.95;;;10.40;;
58874;SDS011;44652;49.040;12.126;2023-01-19T19:33:36;12.93;;;7.60;;
58874;SDS011;44652;49.040;12.126;2023-01-19T19:36:03;12.68;;;7.75;;
58874;SDS011;44652;49.040;12.126;2023-01-19T19:38:30;14.02;;;8.10;;
58874;SDS011;44652;49.040;12.126;2023-01-19T19:40:56;12.10;;;7.97;;
58874;SDS011;44652;49.040;12.126;2023-01-19T19:43:23;13.05;;;8.52;;
58874;SDS011;44652;49.040;12.126;2023-01-19T19:45:59;15.95;;;8.40;;
58874;SDS011;44652;49.040;12.126;2023-01-19T19:48:26;15.57;;;9.07;;
58874;SDS011;44652;49.040;12.126;2023-01-19T19:50:53;12.07;;;7.88;;
58874;SDS011;44652;49.040;12.126;2023-01-19T19:53:20;14.38;;;8.48;;
58874;SDS011;44652;49.040;12.126;2023-01-19T19:55:56;16.35;;;9.63;;
58874;SDS011;44652;49.040;12.126;2023-01-19T19:58:24;14.15;;;8.70;;
58874;SDS011;44652;49.040;12.126;2023-01-19T20:00:50;16.20;;;10.00;;
58874;SDS011;44652;49.040;12.126;2023-01-19T20:03:17;15.98;;;10.00;;
58874;SDS011;44652;49.040;12.126;2023-01-19T20:05:44;16.70;;;9.82;;
58874;SDS011;44652;49.040;12.126;2023-01-19T20:08:11;15.00;;;8.38;;
58874;SDS011;44652;49.040;12.126;2023-01-19T20:10:37;12.82;;;8.45;;
58874;SDS011;44652;49.040;12.126;2023-01-19T20:13:04;12.95;;;7.93;;
58874;SDS011;44652;49.040;12.126;2023-01-19T20:15:34;14.90;;;9.20;;
58874;SDS011;44652;49.040;12.126;2023-01-19T20:18:01;17.80;;;9.77;;
58874;SDS011;44652;49.040;12.126;2023-01-19T20:20:27;13.68;;;8.52;;
58874;SDS011;44652;49.040;12.126;2023-01-19T20:22:54;15.35;;;9.32;;
58874;SDS011;44652;49.040;12.126;2023-01-19T20:25:21;15.23;;;9.00;;
58874;SDS011;44652;49.040;12.126;2023-01-19T20:27:47;14.25;;;9.25;;
58874;SDS011;44652;49.040;12.126;2023-01-19T20:30:14;14.68;;;8.45;;
58874;SDS011;44652;49.040;12.126;2023-01-19T20:32:40;14.50;;;8.95;;
58874;SDS011;44652;49.040;12.126;2023-01-19T20:35:07;12.57;;;9.05;;
58874;SDS011;44652;49.040;12.126;2023-01-19T20:37:36;13.80;;;9.60;;
58874;SDS011;44652;49.040;12.126;2023-01-19T20:40:02;15.38;;;8.45;;
58874;SDS011;44652;49.040;12.126;2023-01-19T20:42:29;13.65;;;9.00;;
58874;SDS011;44652;49.040;12.126;2023-01-19T20:44:56;16.17;;;9.38;;
58874;SDS011;44652;49.040;12.126;2023-01-19T20:47:22;16.83;;;9.00;;
58874;SDS011;44652;49.040;12.126;2023-01-19T20:49:49;19.92;;;10.30;;
58874;SDS011;44652;49.040;12.126;2023-01-19T20:52:15;16.08;;;10.23;;
58874;SDS011;44652;49.040;12.126;2023-01-19T20:54:43;16.52;;;10.25;;
58874;SDS011;44652;49.040;12.126;2023-01-19T20:57:09;14.23;;;9.70;;
58874;SDS011;44652;49.040;12.126;2023-01-19T20:59:36;14.32;;;8.85;;
58874;SDS011;44652;49.040;12.126;2023-01-19T21:02:03;15.77;;;9.43;;
58874;SDS011;44652;49.040;12.126;2023-01-19T21:04:33;15.18;;;9.13;;
58874;SDS011;44652;49.040;12.126;2023-01-19T21:07:01;14.85;;;9.68;;
58874;SDS011;44652;49.040;12.126;2023-01-19T21:09:28;13.75;;;9.43;;
58874;SDS011;44652;49.040;12.126;2023-01-19T21:11:54;14.60;;;9.55;;
58874;SDS011;44652;49.040;12.126;2023-01-19T21:16:49;16.00;;;9.48;;
58874;SDS011;44652;49.040;12.126;2023-01-19T21:19:16;19.45;;;9.15;;
58874;SDS011;44652;49.040;12.126;2023-01-19T21:21:42;14.32;;;8.70;;
58874;SDS011;44652;49.040;12.126;2023-01-19T21:24:09;12.95;;;8.50;;
58874;SDS011;44652;49.040;12.126;2023-01-19T21:26:36;17.90;;;9.50;;
58874;SDS011;44652;49.040;12.126;2023-01-19T21:29:03;15.15;;;9.88;;
58874;SDS011;44652;49.040;12.126;2023-01-19T21:31:30;15.95;;;9.68;;
58874;SDS011;44652;49.040;12.126;2023-01-19T21:33:56;16.17;;;9.13;;
58874;SDS011;44652;49.040;12.126;2023-01-19T21:36:24;16.52;;;9.13;;
58874;SDS011;44652;49.040;12.126;2023-01-19T21:38:51;15.35;;;8.65;;
58874;SDS011;44652;49.040;12.126;2023-01-19T21:41:18;16.58;;;9.85;;
58874;SDS011;44652;49.040;12.126;2023-01-19T21:43:44;13.02;;;8.27;;
58874;SDS011;44652;49.040;12.126;2023-01-19T21:46:12;15.02;;;8.82;;
58874;SDS011;44652;49.040;12.126;2023-01-19T21:48:40;16.05;;;9.65;;
58874;SDS011;44652;49.040;12.126;2023-01-19T21:51:06;13.02;;;8.95;;
58874;SDS011;44652;49.040;12.126;2023-01-19T21:53:33;14.13;;;9.70;;
58874;SDS011;44652;49.040;12.126;2023-01-19T21:55:59;15.05;;;9.55;;
58874;SDS011;44652;49.040;12.126;2023-01-19T21:58:26;14.43;;;8.88;;
58874;SDS011;44652;49.040;12.126;2023-01-19T22:00:59;15.73;;;9.30;;
58874;SDS011;44652;49.040;12.126;2023-01-19T22:03:26;16.77;;;10.43;;
58874;SDS011;44652;49.040;12.126;2023-01-19T22:05:53;15.38;;;9.18;;
58874;SDS011;44652;49.040;12.126;2023-01-19T22:08:22;18.45;;;9.27;;
58874;SDS011;44652;49.040;12.126;2023-01-19T22:10:49;16.52;;;9.90;;
58874;SDS011;44652;49.040;12.126;2023-01-19T22:13:15;23.95;;;13.02;;
58874;SDS011;44652;49.040;12.126;2023-01-19T22:15:42;20.02;;;11.73;;
58874;SDS011;44652;49.040;12.126;2023-01-19T22:18:08;19.33;;;11.15;;
58874;SDS011;44652;49.040;12.126;2023-01-19T22:20:35;16.02;;;9.77;;
58874;SDS011;44652;49.040;12.126;2023-01-19T22:23:02;15.38;;;9.55;;
58874;SDS011;44652;49.040;12.126;2023-01-19T22:25:30;13.73;;;9.15;;
58874;SDS011;44652;49.040;12.126;2023-01-19T22:27:57;14.57;;;9.25;;
58874;SDS011;44652;49.040;12.126;2023-01-19T22:30:24;14.65;;;9.10;;
58874;SDS011;44652;49.040;12.126;2023-01-19T22:32:53;16.50;;;10.73;;
58874;SDS011;44652;49.040;12.126;2023-01-19T22:35:20;17.65;;;9.98;;
58874;SDS011;44652;49.040;12.126;2023-01-19T22:37:46;14.40;;;9.60;;
58874;SDS011;44652;49.040;12.126;2023-01-19T22:40:13;17.55;;;10.30;;
58874;SDS011;44652;49.040;12.126;2023-01-19T22:42:43;15.95;;;9.65;;
58874;SDS011;44652;49.040;12.126;2023-01-19T22:45:09;15.40;;;9.77;;
58874;SDS011;44652;49.040;12.126;2023-01-19T22:47:37;15.45;;;9.65;;
58874;SDS011;44652;49.040;12.126;2023-01-19T22:50:04;15.73;;;9.43;;
58874;SDS011;44652;49.040;12.126;2023-01-19T22:52:30;16.05;;;9.05;;
58874;SDS011;44652;49.040;12.126;2023-01-19T22:54:57;16.73;;;9.27;;
58874;SDS011;44652;49.040;12.126;2023-01-19T22:57:23;17.85;;;10.40;;
58874;SDS011;44652;49.040;12.126;2023-01-19T22:59:50;16.25;;;10.15;;
58874;SDS011;44652;49.040;12.126;2023-01-19T23:02:16;15.20;;;9.98;;
58874;SDS011;44652;49.040;12.126;2023-01-19T23:04:46;15.73;;;10.57;;
58874;SDS011;44652;49.040;12.126;2023-01-19T23:07:12;15.93;;;10.55;;
58874;SDS011;44652;49.040;12.126;2023-01-19T23:09:39;15.70;;;10.60;;
58874;SDS011;44652;49.040;12.126;2023-01-19T23:12:06;16.60;;;11.02;;
58874;SDS011;44652;49.040;12.126;2023-01-19T23:14:32;15.18;;;10.55;;
58874;SDS011;44652;49.040;12.126;2023-01-19T23:16:59;17.20;;;10.10;;
58874;SDS011;44652;49.040;12.126;2023-01-19T23:19:26;15.60;;;10.25;;
58874;SDS011;44652;49.040;12.126;2023-01-19T23:21:53;16.25;;;10.18;;
58874;SDS011;44652;49.040;12.126;2023-01-19T23:24:20;18.67;;;11.50;;
58874;SDS011;44652;49.040;12.126;2023-01-19T23:26:49;17.40;;;11.82;;
58874;SDS011;44652;49.040;12.126;2023-01-19T23:29:16;19.23;;;11.70;;
58874;SDS011;44652;49.040;12.126;2023-01-19T23:31:46;18.50;;;11.57;;
58874;SDS011;44652;49.040;12.126;2023-01-19T23:34:13;17.20;;;10.35;;
58874;SDS011;44652;49.040;12.126;2023-01-19T23:36:40;16.35;;;9.75;;
58874;SDS011;44652;49.040;12.126;2023-01-19T23:39:11;16.63;;;10.05;;
58874;SDS011;44652;49.040;12.126;2023-01-19T23:41:39;16.10;;;10.32;;
58874;SDS011;44652;49.040;12.126;2023-01-19T23:44:06;14.77;;;10.15;;
58874;SDS011;44652;49.040;12.126;2023-01-19T23:46:33;16.63;;;10.20;;
58874;SDS011;44652;49.040;12.126;2023-01-19T23:49:00;16.73;;;10.82;;
58874;SDS011;44652;49.040;12.126;2023-01-19T23:51:27;17.75;;;10.40;;
58874;SDS011;44652;49.040;12.126;2023-01-19T23:53:55;15.77;;;10.40;;
58874;SDS011;44652;49.040;12.126;2023-01-19T23:56:28;17.63;;;9.77;;
58874;SDS011;44652;49.040;12.126;2023-01-19T23:58:57;14.95;;;10.02;;
